Time,TemperatureF,DewpointF,PressureIn,WindDirection,WindDirectionDegrees,WindSpeedMPH,WindSpeedGustMPH,Humidity,HourlyPrecipIn,Conditions,Clouds,dailyrainin,SoftwareType,DateUTC
2013-05-21 00:02:00,76.0,69.0,29.97,South,186,0.0,4.0,80,0.00,,,0.00,,2013-05-21 05:02:00,
2013-05-21 00:12:00,76.0,69.0,29.97,South,186,0.0,4.0,80,0.00,,,0.00,,2013-05-21 05:12:00,
2013-05-21 00:22:00,76.0,69.0,29.97,SSE,166,0.0,7.0,80,0.00,,,0.00,,2013-05-21 05:22:00,
2013-05-21 00:32:00,76.0,69.0,29.96,South,171,0.0,7.0,80,0.00,,,0.00,,2013-05-21 05:32:00,
2013-05-21 00:42:00,75.0,68.0,29.96,SSW,197,0.0,8.0,80,0.00,,,0.00,,2013-05-21 05:42:00,
2013-05-21 00:51:00,75.0,68.0,29.96,SSW,197,0.0,8.0,80,0.00,,,0.00,,2013-05-21 05:51:00,
2013-05-21 01:02:00,75.0,68.0,29.96,SSW,197,0.0,8.0,80,0.00,,,0.00,,2013-05-21 06:02:00,
2013-05-21 01:12:00,75.0,68.0,29.96,SSW,197,0.0,8.0,80,0.00,,,0.00,,2013-05-21 06:12:00,
2013-05-21 01:21:00,75.0,69.0,29.97,South,174,12.0,12.0,81,0.00,,,0.00,,2013-05-21 06:21:00,
2013-05-21 01:32:00,75.0,69.0,29.97,South,174,12.0,12.0,81,0.00,,,0.00,,2013-05-21 06:32:00,
2013-05-21 01:42:00,75.0,69.0,29.97,South,174,12.0,12.0,81,0.00,,,0.00,,2013-05-21 06:42:00,
2013-05-21 01:51:00,75.0,69.0,29.96,South,190,8.0,10.0,81,0.00,,,0.00,,2013-05-21 06:51:00,
2013-05-21 02:01:00,75.0,69.0,29.96,South,190,8.0,10.0,81,0.00,,,0.00,,2013-05-21 07:01:00,
2013-05-21 02:11:00,75.0,69.0,29.96,South,190,8.0,10.0,81,0.00,,,0.00,,2013-05-21 07:11:00,
2013-05-21 02:22:00,75.0,69.0,29.97,South,182,16.0,16.0,81,0.00,,,0.00,,2013-05-21 07:22:00,
2013-05-21 02:31:00,75.0,69.0,29.96,SSW,211,0.0,11.0,81,0.00,,,0.00,,2013-05-21 07:31:00,
2013-05-21 02:41:00,75.0,69.0,29.96,SSW,211,0.0,11.0,81,0.00,,,0.00,,2013-05-21 07:41:00,
2013-05-21 02:52:00,75.0,69.0,29.96,SSW,211,0.0,11.0,81,0.00,,,0.00,,2013-05-21 07:52:00,
2013-05-21 03:02:00,74.0,69.0,29.94,South,182,6.0,8.0,85,0.01,,,0.01,,2013-05-21 08:02:00,
2013-05-21 03:11:00,74.0,69.0,29.94,South,182,6.0,8.0,85,0.01,,,0.01,,2013-05-21 08:11:00,
2013-05-21 03:21:00,74.0,69.0,29.94,South,182,6.0,8.0,85,0.01,,,0.01,,2013-05-21 08:21:00,
2013-05-21 03:31:00,69.0,64.0,29.99,West,273,12.0,12.0,84,0.14,,,0.14,,2013-05-21 08:31:00,
2013-05-21 03:41:00,68.0,64.0,29.97,WNW,296,0.0,6.0,86,0.21,,,0.21,,2013-05-21 08:41:00,
2013-05-21 03:52:00,68.0,64.0,29.97,WNW,296,0.0,6.0,86,0.21,,,0.21,,2013-05-21 08:52:00,
2013-05-21 04:01:00,67.0,63.0,29.96,NW,319,0.0,0.0,88,0.23,,,0.24,,2013-05-21 09:01:00,
2013-05-21 04:11:00,67.0,63.0,29.96,NW,319,0.0,0.0,88,0.23,,,0.24,,2013-05-21 09:11:00,
2013-05-21 04:21:00,66.0,63.0,29.96,West,263,0.0,0.0,89,0.23,,,0.24,,2013-05-21 09:21:00,
2013-05-21 04:32:00,66.0,63.0,29.96,West,263,0.0,0.0,90,0.21,,,0.24,,2013-05-21 09:32:00,
2013-05-21 04:42:00,66.0,63.0,29.96,West,263,0.0,0.0,90,0.21,,,0.24,,2013-05-21 09:42:00,
2013-05-21 04:52:00,65.0,63.0,29.96,NE,50,0.0,6.0,92,0.03,,,0.24,,2013-05-21 09:52:00,
2013-05-21 05:02:00,65.0,63.0,29.96,ESE,103,4.0,6.0,93,0.00,,,0.24,,2013-05-21 10:02:00,
2013-05-21 05:12:00,65.0,63.0,29.96,ESE,103,4.0,6.0,93,0.00,,,0.24,,2013-05-21 10:12:00,
2013-05-21 05:22:00,65.0,63.0,29.97,ESE,118,0.0,2.0,94,0.00,,,0.24,,2013-05-21 10:22:00,
2013-05-21 05:32:00,65.0,63.0,29.98,ESE,118,0.0,1.0,94,0.00,,,0.24,,2013-05-21 10:32:00,
2013-05-21 05:42:00,65.0,63.0,29.98,ESE,118,0.0,1.0,94,0.00,,,0.24,,2013-05-21 10:42:00,
2013-05-21 05:52:00,65.0,63.0,29.98,ESE,118,0.0,1.0,94,0.00,,,0.24,,2013-05-21 10:52:00,
2013-05-21 06:02:00,65.0,64.0,30.00,ESE,118,0.0,1.0,95,0.00,,,0.24,,2013-05-21 11:02:00,
2013-05-21 06:12:00,65.0,64.0,30.00,ESE,118,0.0,1.0,95,0.00,,,0.24,,2013-05-21 11:12:00,
2013-05-21 06:21:00,65.0,64.0,29.99,ESE,118,0.0,0.0,95,0.00,,,0.24,,2013-05-21 11:21:00,
2013-05-21 06:32:00,65.0,64.0,30.00,ESE,118,0.0,0.0,95,0.00,,,0.24,,2013-05-21 11:32:00,
2013-05-21 06:41:00,65.0,64.0,30.00,ESE,118,0.0,0.0,95,0.00,,,0.24,,2013-05-21 11:41:00,
2013-05-21 06:51:00,65.0,64.0,30.00,ESE,118,0.0,0.0,95,0.00,,,0.24,,2013-05-21 11:51:00,
2013-05-21 07:01:00,65.0,64.0,30.00,ESE,118,0.0,0.0,95,0.00,,,0.24,,2013-05-21 12:01:00,
2013-05-21 07:11:00,65.0,64.0,30.00,ESE,118,0.0,0.0,95,0.00,,,0.24,,2013-05-21 12:11:00,
2013-05-21 07:21:00,66.0,65.0,29.97,ESE,123,0.0,5.0,96,0.00,,,0.24,,2013-05-21 12:21:00,
2013-05-21 07:32:00,66.0,65.0,29.98,ESE,111,0.0,1.0,96,0.00,,,0.24,,2013-05-21 12:32:00,
2013-05-21 07:42:00,66.0,65.0,29.98,ESE,111,0.0,1.0,96,0.00,,,0.24,,2013-05-21 12:42:00,
2013-05-21 07:51:00,67.0,66.0,29.98,ESE,111,0.0,1.0,96,0.00,,,0.24,,2013-05-21 12:51:00,
2013-05-21 08:01:00,67.0,66.0,29.99,SE,126,0.0,0.0,95,0.00,,,0.24,,2013-05-21 13:01:00,
2013-05-21 08:12:00,67.0,66.0,29.99,SE,126,0.0,0.0,95,0.00,,,0.24,,2013-05-21 13:12:00,
2013-05-21 08:22:00,67.0,66.0,29.99,SE,126,0.0,0.0,95,0.00,,,0.24,,2013-05-21 13:22:00,
2013-05-21 08:32:00,67.0,66.0,29.99,SE,126,0.0,0.0,95,0.00,,,0.24,,2013-05-21 13:32:00,
2013-05-21 08:41:00,67.0,66.0,29.99,SE,126,0.0,0.0,95,0.00,,,0.24,,2013-05-21 13:41:00,
2013-05-21 09:01:00,69.0,67.0,30.00,SE,138,0.0,0.0,93,0.00,,,0.24,,2013-05-21 14:01:00,
2013-05-21 09:11:00,69.0,67.0,30.00,SE,138,0.0,0.0,93,0.00,,,0.24,,2013-05-21 14:11:00,
2013-05-21 09:21:00,69.0,67.0,30.01,WSW,243,0.0,3.0,94,0.06,,,0.30,,2013-05-21 14:21:00,
2013-05-21 09:32:00,69.0,67.0,30.01,SW,234,0.0,2.0,94,0.06,,,0.30,,2013-05-21 14:32:00,
2013-05-21 09:41:00,69.0,67.0,30.01,SW,234,0.0,2.0,94,0.06,,,0.30,,2013-05-21 14:41:00,
2013-05-21 09:51:00,69.0,67.0,30.01,SW,234,0.0,2.0,94,0.06,,,0.30,,2013-05-21 14:51:00,
2013-05-21 10:01:00,69.0,68.0,30.03,NW,306,0.0,1.0,95,0.06,,,0.30,,2013-05-21 15:01:00,
2013-05-21 10:11:00,66.0,63.0,30.03,ENE,63,14.0,14.0,90,0.01,,,0.31,,2013-05-21 15:11:00,
2013-05-21 10:21:00,66.0,63.0,30.03,ENE,63,14.0,14.0,90,0.01,,,0.31,,2013-05-21 15:21:00,
2013-05-21 10:33:00,65.0,62.0,30.01,NNE,27,0.0,9.0,91,0.01,,,0.31,,2013-05-21 15:33:00,
2013-05-21 10:42:00,65.0,63.0,30.01,NE,53,0.0,4.0,93,0.02,,,0.32,,2013-05-21 15:42:00,
2013-05-21 10:52:00,65.0,63.0,30.01,NE,53,0.0,4.0,93,0.02,,,0.32,,2013-05-21 15:52:00,
2013-05-21 11:03:00,65.0,63.0,29.99,ENE,78,0.0,6.0,94,0.03,,,0.33,,2013-05-21 16:03:00,
2013-05-21 11:13:00,66.0,65.0,29.99,East,87,0.0,4.0,95,0.02,,,0.33,,2013-05-21 16:13:00,
2013-05-21 11:23:00,66.0,65.0,29.99,East,87,0.0,4.0,95,0.02,,,0.33,,2013-05-21 16:23:00,
2013-05-21 11:32:00,68.0,66.0,29.98,East,96,4.0,6.0,94,0.01,,,0.33,,2013-05-21 16:32:00,
2013-05-21 11:42:00,68.0,66.0,29.98,NE,55,0.0,5.0,93,0.01,,,0.33,,2013-05-21 16:42:00,
2013-05-21 11:52:00,68.0,66.0,29.98,NE,55,0.0,5.0,93,0.01,,,0.33,,2013-05-21 16:52:00,
2013-05-21 12:02:00,70.0,67.0,29.98,ESE,114,8.0,8.0,91,0.00,,,0.33,,2013-05-21 17:02:00,
2013-05-21 12:12:00,71.0,68.0,29.98,NNE,28,8.0,8.0,90,0.00,,,0.33,,2013-05-21 17:12:00,
2013-05-21 12:23:00,71.0,68.0,29.98,NNE,28,8.0,8.0,90,0.00,,,0.33,,2013-05-21 17:23:00,
2013-05-21 12:32:00,71.0,68.0,29.98,NNE,28,8.0,8.0,90,0.00,,,0.33,,2013-05-21 17:32:00,
2013-05-21 12:43:00,74.0,68.0,29.96,East,94,10.0,10.0,83,0.00,,,0.33,,2013-05-21 17:43:00,
2013-05-21 12:52:00,74.0,68.0,29.96,East,94,10.0,10.0,83,0.00,,,0.33,,2013-05-21 17:52:00,
2013-05-21 13:02:00,74.0,68.0,29.97,ESE,105,10.0,10.0,83,0.00,,,0.33,,2013-05-21 18:02:00,
2013-05-21 13:12:00,74.0,68.0,29.97,ESE,105,10.0,10.0,83,0.00,,,0.33,,2013-05-21 18:12:00,
2013-05-21 13:22:00,74.0,68.0,29.97,ESE,105,10.0,10.0,83,0.00,,,0.33,,2013-05-21 18:22:00,
2013-05-21 13:32:00,74.0,68.0,29.97,ESE,105,10.0,10.0,83,0.00,,,0.33,,2013-05-21 18:32:00,